Time;durP1;ratioP1;P1;durP2;ratioP2;P2;SDS_P1;SDS_P2;PMS_P1;PMS_P2;Temp;Humidity;BMP_temperature;BMP_pressure;BME280_temperature;BME280_humidity;BME280_pressure;Samples;Min_cycle;Max_cycle;Signal;HPM_P1;HPM_P2
2023/03/30 00:00:17;;;;;;;5.10;3.60;;;12.20;99.90;;;;;;5031933;28;20653;-86
2023/03/30 00:02:44;;;;;;;4.10;3.70;;;12.20;99.90;;;;;;4996852;28;20207;-86
2023/03/30 00:05:10;;;;;;;5.40;3.93;;;12.20;99.90;;;;;;5014634;28;20229;-86
2023/03/30 00:07:37;;;;;;;4.67;3.77;;;12.30;99.90;;;;;;5010226;28;20614;-86
2023/03/30 00:10:04;;;;;;;3.00;2.70;;;12.30;99.90;;;;;;4977009;28;20224;-86
2023/03/30 00:12:31;;;;;;;6.33;3.97;;;12.20;99.90;;;;;;4994458;28;20246;-86
2023/03/30 00:14:57;;;;;;;5.53;4.10;;;12.20;99.90;;;;;;4997445;28;20188;-85
2023/03/30 00:17:22;;;;;;;3.87;3.13;;;12.20;99.90;;;;;;4986219;28;20546;-86
2023/03/30 00:19:48;;;;;;;6.03;3.40;;;12.20;99.90;;;;;;5014343;28;20321;-86
2023/03/30 00:22:14;;;;;;;4.97;3.07;;;12.20;99.90;;;;;;5013397;28;20685;-86
2023/03/30 00:24:40;;;;;;;4.33;3.87;;;12.20;99.90;;;;;;5013895;28;20233;-86
2023/03/30 00:27:06;;;;;;;4.97;4.33;;;12.30;99.90;;;;;;4998695;28;20645;-86
2023/03/30 00:29:32;;;;;;;4.83;4.07;;;12.40;99.90;;;;;;4997871;28;20699;-85
2023/03/30 00:31:57;;;;;;;3.07;2.73;;;12.40;99.90;;;;;;5023494;28;20572;-86
2023/03/30 00:34:23;;;;;;;7.17;4.13;;;12.40;99.90;;;;;;5013488;28;20210;-86
2023/03/30 00:36:52;;;;;;;7.30;3.03;;;12.50;99.90;;;;;;5031488;28;20230;-86
2023/03/30 00:39:21;;;;;;;4.63;3.67;;;12.50;99.90;;;;;;4992664;28;20194;-86
2023/03/30 00:41:48;;;;;;;5.00;3.03;;;12.60;99.90;;;;;;5031626;28;20246;-86
2023/03/30 00:44:51;;;;;;;5.27;3.67;;;12.60;99.90;;;;;;5005568;28;20245;-86
2023/03/30 00:47:17;;;;;;;9.60;2.90;;;12.60;99.90;;;;;;5008659;28;20237;-86
2023/03/30 00:49:43;;;;;;;11.50;4.53;;;12.60;99.90;;;;;;4978766;28;20284;-86
2023/03/30 00:52:10;;;;;;;7.40;3.80;;;12.60;99.90;;;;;;4996715;28;20680;-86
2023/03/30 00:54:38;;;;;;;4.83;3.43;;;12.60;99.90;;;;;;5031217;28;20272;-86
2023/03/30 00:57:05;;;;;;;4.23;2.57;;;12.60;99.90;;;;;;4997707;28;20282;-86
2023/03/30 00:59:31;;;;;;;3.47;2.97;;;12.60;99.90;;;;;;5006133;28;20247;-86
2023/03/30 01:01:57;;;;;;;9.07;4.07;;;12.60;99.90;;;;;;5005210;28;20292;-86
2023/03/30 01:04:24;;;;;;;5.80;2.93;;;12.60;99.90;;;;;;5031174;28;20219;-86
2023/03/30 01:06:51;;;;;;;3.77;2.73;;;12.60;99.90;;;;;;4997027;28;20219;-86
2023/03/30 01:09:17;;;;;;;2.83;2.57;;;12.60;99.90;;;;;;4998451;28;20214;-85
2023/03/30 01:11:43;;;;;;;3.17;2.83;;;12.60;99.90;;;;;;5013575;28;20529;-85
2023/03/30 01:14:11;;;;;;;5.73;3.93;;;12.60;99.90;;;;;;4996830;28;20568;-86
2023/03/30 01:17:01;;;;;;;5.07;3.07;;;12.60;99.90;;;;;;5030607;28;20222;-86
2023/03/30 01:20:11;;;;;;;8.30;3.17;;;12.60;99.90;;;;;;5012538;28;20288;-86
2023/03/30 01:23:07;;;;;;;3.60;2.83;;;12.60;99.90;;;;;;5030838;28;20659;-86
2023/03/30 01:25:45;;;;;;;3.30;2.23;;;12.60;99.90;;;;;;5028725;28;20655;-86
2023/03/30 01:28:16;;;;;;;7.40;3.03;;;12.60;99.90;;;;;;5010712;28;20243;-86
2023/03/30 01:31:17;;;;;;;3.90;2.63;;;12.60;99.90;;;;;;5027293;28;20679;-86
2023/03/30 01:34:04;;;;;;;5.40;3.00;;;12.60;99.90;;;;;;5007397;28;20241;-87
2023/03/30 01:36:36;;;;;;;4.43;3.17;;;12.60;99.90;;;;;;5030381;28;20668;-86
2023/03/30 01:39:08;;;;;;;10.20;3.30;;;12.50;99.90;;;;;;5002601;28;20227;-86
2023/03/30 01:41:54;;;;;;;4.23;3.47;;;12.50;99.90;;;;;;5029027;28;20313;-86
2023/03/30 01:44:42;;;;;;;5.77;3.20;;;12.50;99.90;;;;;;5029770;28;20321;-86
2023/03/30 01:47:18;;;;;;;5.43;3.20;;;12.50;99.90;;;;;;5027015;28;20222;-86
2023/03/30 01:50:03;;;;;;;2.43;2.10;;;12.40;99.90;;;;;;5010579;28;20222;-86
2023/03/30 01:52:41;;;;;;;4.77;3.77;;;12.40;99.90;;;;;;5030037;28;20216;-86
2023/03/30 01:55:16;;;;;;;3.30;3.03;;;12.30;99.90;;;;;;5009041;28;20214;-86
2023/03/30 01:57:49;;;;;;;3.33;2.33;;;12.30;99.90;;;;;;5029062;28;20642;-86
2023/03/30 02:00:20;;;;;;;3.63;3.33;;;12.30;99.90;;;;;;5013006;28;20241;-86
2023/03/30 02:02:55;;;;;;;6.30;3.37;;;12.30;99.90;;;;;;5020441;28;20210;-86
2023/03/30 02:05:23;;;;;;;6.93;3.33;;;12.20;99.90;;;;;;5031770;28;20718;-87
2023/03/30 02:07:53;;;;;;;2.77;2.17;;;12.20;99.90;;;;;;5015196;28;20639;-86
2023/03/30 02:10:26;;;;;;;4.03;2.70;;;12.20;99.90;;;;;;5012286;28;20218;-86
2023/03/30 02:12:55;;;;;;;7.07;2.23;;;12.20;99.90;;;;;;5016577;28;20226;-86
2023/03/30 02:15:23;;;;;;;6.37;2.33;;;12.20;99.90;;;;;;5017039;28;20486;-85
2023/03/30 02:17:50;;;;;;;3.47;2.67;;;12.20;99.90;;;;;;5034382;28;20237;-85
2023/03/30 02:20:16;;;;;;;3.03;2.83;;;12.20;99.90;;;;;;4984398;28;20229;-84
2023/03/30 02:22:43;;;;;;;6.47;2.30;;;12.20;99.90;;;;;;5016642;28;20215;-86
2023/03/30 02:25:09;;;;;;;2.50;2.30;;;12.20;99.90;;;;;;5011786;28;20215;-86
2023/03/30 02:27:36;;;;;;;10.20;2.20;;;12.20;99.90;;;;;;5016184;28;20309;-86
2023/03/30 02:30:07;;;;;;;2.73;2.10;;;12.20;99.90;;;;;;5017092;28;20252;-86
2023/03/30 02:32:50;;;;;;;3.23;1.90;;;12.20;99.90;;;;;;5034085;28;20253;-85
2023/03/30 02:35:35;;;;;;;7.33;2.33;;;12.20;99.90;;;;;;5034217;28;20261;-86
2023/03/30 02:38:20;;;;;;;2.67;1.60;;;12.20;99.90;;;;;;5031304;28;20626;-84
2023/03/30 02:40:57;;;;;;;3.40;2.20;;;12.20;99.90;;;;;;5015600;28;20723;-85
2023/03/30 02:43:57;;;;;;;1.60;1.10;;;12.20;99.90;;;;;;5015034;28;20226;-85
2023/03/30 02:46:42;;;;;;;2.60;1.80;;;12.20;99.90;;;;;;5028349;28;20272;-86
2023/03/30 02:49:22;;;;;;;3.97;2.07;;;12.30;99.90;;;;;;5015838;28;20284;-86
2023/03/30 02:51:57;;;;;;;2.27;1.73;;;12.20;99.90;;;;;;5010702;28;20665;-86
2023/03/30 02:54:33;;;;;;;4.10;1.87;;;12.20;99.90;;;;;;5032289;28;20531;-86
2023/03/30 02:57:25;;;;;;;3.57;1.90;;;12.20;99.90;;;;;;5030233;28;20576;-86
2023/03/30 02:59:56;;;;;;;2.00;1.83;;;12.20;99.90;;;;;;5016127;28;20291;-86
2023/03/30 03:02:34;;;;;;;2.57;1.97;;;12.10;99.90;;;;;;5033244;28;20210;-86
2023/03/30 03:05:02;;;;;;;2.80;1.80;;;12.00;99.90;;;;;;5032953;28;20229;-86
2023/03/30 03:07:32;;;;;;;1.40;1.30;;;11.90;99.90;;;;;;5002475;28;20245;-85
2023/03/30 03:09:58;;;;;;;2.83;0.90;;;11.90;99.90;;;;;;5015793;28;20234;-85
2023/03/30 03:12:27;;;;;;;8.97;1.33;;;11.90;99.90;;;;;;4983084;28;20207;-86
2023/03/30 03:14:53;;;;;;;1.40;1.30;;;11.80;99.90;;;;;;5031538;28;20179;-84
2023/03/30 03:17:21;;;;;;;2.07;1.00;;;11.80;99.90;;;;;;5015390;28;20215;-86
2023/03/30 03:19:47;;;;;;;3.77;1.40;;;11.70;99.90;;;;;;5015574;28;20234;-86
2023/03/30 03:22:13;;;;;;;1.40;1.17;;;11.70;99.90;;;;;;4999405;28;20305;-86
2023/03/30 03:24:39;;;;;;;3.43;1.00;;;11.70;99.90;;;;;;5014649;28;20227;-86
2023/03/30 03:27:05;;;;;;;4.83;1.20;;;11.60;99.90;;;;;;5024683;28;20227;-85
2023/03/30 03:29:31;;;;;;;2.03;0.93;;;11.60;99.90;;;;;;5035315;28;20226;-86
2023/03/30 03:31:57;;;;;;;1.37;0.90;;;11.50;99.90;;;;;;5032659;28;20257;-86
2023/03/30 03:34:25;;;;;;;2.13;1.83;;;11.50;99.90;;;;;;5029494;28;20222;-85
2023/03/30 03:36:53;;;;;;;2.43;1.63;;;11.50;99.90;;;;;;5015079;28;20719;-86
2023/03/30 03:39:20;;;;;;;8.50;2.17;;;11.50;99.90;;;;;;5024374;28;20203;-86
2023/03/30 03:41:45;;;;;;;2.60;1.73;;;11.50;99.90;;;;;;5033207;28;20218;-86
2023/03/30 03:44:11;;;;;;;3.80;1.87;;;11.50;99.90;;;;;;5009758;28;20226;-86
2023/03/30 03:46:37;;;;;;;2.43;2.23;;;11.40;99.90;;;;;;5009794;28;20246;-86
2023/03/30 03:49:03;;;;;;;6.93;1.03;;;11.40;99.90;;;;;;5032469;28;20242;-86
2023/03/30 03:51:31;;;;;;;7.30;2.53;;;11.30;99.90;;;;;;4998802;28;20230;-86
2023/03/30 03:53:57;;;;;;;7.57;2.17;;;11.30;99.90;;;;;;5015305;28;20305;-86
2023/03/30 03:56:24;;;;;;;1.13;1.03;;;11.30;99.90;;;;;;5015066;28;20226;-86
2023/03/30 03:58:50;;;;;;;2.07;1.17;;;11.30;99.90;;;;;;4989435;28;20661;-87
2023/03/30 04:01:16;;;;;;;6.60;2.00;;;11.20;99.90;;;;;;5006309;28;20684;-86
2023/03/30 04:03:42;;;;;;;2.17;1.20;;;11.20;99.90;;;;;;5013195;28;20239;-86
2023/03/30 04:06:08;;;;;;;1.20;1.07;;;11.20;99.90;;;;;;4998812;28;20245;-86
2023/03/30 04:08:34;;;;;;;2.80;1.77;;;11.20;99.90;;;;;;5013771;28;20253;-86
2023/03/30 04:11:08;;;;;;;3.80;0.77;;;11.30;99.90;;;;;;5029549;28;20310;-86
2023/03/30 04:13:34;;;;;;;6.37;1.47;;;11.30;99.90;;;;;;5014472;28;20222;-86
2023/03/30 04:16:01;;;;;;;2.60;1.83;;;11.30;99.90;;;;;;5013743;28;20250;-86
2023/03/30 04:18:30;;;;;;;6.13;2.20;;;11.40;99.90;;;;;;5014680;28;20195;-86
2023/03/30 04:20:58;;;;;;;0.77;0.77;;;11.40;99.90;;;;;;5013106;28;20669;-86
2023/03/30 04:23:30;;;;;;;0.90;0.63;;;11.40;99.90;;;;;;4998250;28;20251;-85
2023/03/30 04:25:57;;;;;;;8.37;2.37;;;11.40;99.90;;;;;;5030548;28;20214;-85
2023/03/30 04:28:23;;;;;;;2.07;1.03;;;11.50;99.90;;;;;;5031614;28;20314;-86
2023/03/30 04:30:49;;;;;;;0.90;0.90;;;11.50;99.90;;;;;;4997211;28;20230;-85
2023/03/30 04:33:15;;;;;;;0.57;0.57;;;11.50;99.90;;;;;;4998184;28;20199;-85
2023/03/30 04:35:42;;;;;;;2.67;1.40;;;11.60;99.90;;;;;;4998159;28;20194;-86
2023/03/30 04:38:07;;;;;;;2.07;1.47;;;11.60;99.90;;;;;;5031541;28;20237;-89
2023/03/30 04:40:33;;;;;;;1.20;1.10;;;11.70;99.90;;;;;;5010283;28;20588;-85
2023/03/30 04:43:02;;;;;;;7.87;2.17;;;11.70;99.90;;;;;;4993625;28;20227;-85
2023/03/30 04:45:29;;;;;;;3.27;1.63;;;11.70;99.90;;;;;;5011934;28;20628;-86
2023/03/30 04:47:55;;;;;;;1.07;1.07;;;11.80;99.90;;;;;;5010691;28;20301;-86
2023/03/30 04:50:21;;;;;;;7.97;1.70;;;11.70;99.90;;;;;;5030282;28;20313;-86
2023/03/30 04:52:47;;;;;;;1.30;1.17;;;11.80;99.90;;;;;;5031340;28;20690;-86
2023/03/30 04:55:13;;;;;;;1.70;1.50;;;11.80;99.90;;;;;;5013542;28;20735;-87
2023/03/30 04:57:53;;;;;;;2.00;0.93;;;11.70;99.90;;;;;;5064014;27;1284022;-86
2023/03/30 05:00:19;;;;;;;2.30;1.30;;;11.80;99.90;;;;;;5065342;28;20681;-86
2023/03/30 05:02:45;;;;;;;0.93;0.93;;;11.70;99.90;;;;;;5049888;28;20583;-86
2023/03/30 05:05:10;;;;;;;7.40;1.37;;;11.70;99.90;;;;;;5055359;28;20222;-87
2023/03/30 05:07:36;;;;;;;2.27;1.13;;;11.80;99.90;;;;;;5050546;28;20220;-87
2023/03/30 05:10:02;;;;;;;8.30;2.33;;;11.80;99.90;;;;;;5066228;28;20213;-87
2023/03/30 05:12:28;;;;;;;4.10;1.83;;;11.80;99.90;;;;;;5063917;28;20655;-87
2023/03/30 05:14:54;;;;;;;1.93;1.73;;;11.80;99.90;;;;;;5072110;28;20184;-87
2023/03/30 05:17:20;;;;;;;6.40;2.03;;;11.80;99.90;;;;;;5069606;28;20613;-86
2023/03/30 05:19:45;;;;;;;2.80;2.53;;;11.70;99.90;;;;;;5086489;28;20227;-87
2023/03/30 05:22:11;;;;;;;4.83;2.83;;;11.80;99.90;;;;;;5100745;28;20606;-86
2023/03/30 05:24:37;;;;;;;1.43;1.27;;;11.70;99.90;;;;;;5086966;28;20688;-87
2023/03/30 05:27:04;;;;;;;3.10;1.60;;;11.70;99.90;;;;;;5097819;28;20196;-87
2023/03/30 05:29:30;;;;;;;0.80;0.80;;;11.70;99.90;;;;;;5090421;28;20276;-86
2023/03/30 05:31:56;;;;;;;1.83;1.43;;;11.70;99.90;;;;;;5102994;28;20227;-86
2023/03/30 05:34:21;;;;;;;2.60;0.90;;;11.70;99.90;;;;;;5098062;28;20215;-86
2023/03/30 05:36:47;;;;;;;14.70;1.57;;;11.70;99.90;;;;;;5101082;28;20288;-87
2023/03/30 05:39:14;;;;;;;9.20;1.60;;;11.70;99.90;;;;;;5069215;28;20181;-87
2023/03/30 05:41:39;;;;;;;1.10;0.97;;;11.70;99.90;;;;;;5097711;28;20271;-86
2023/03/30 05:44:06;;;;;;;2.30;1.77;;;11.70;99.90;;;;;;5085517;28;20307;-86
2023/03/30 05:46:32;;;;;;;2.07;1.77;;;11.70;99.90;;;;;;5084093;28;20219;-87
2023/03/30 05:48:57;;;;;;;2.57;1.67;;;11.70;99.90;;;;;;5081681;28;20303;-86
2023/03/30 05:51:24;;;;;;;0.40;0.40;;;11.70;99.90;;;;;;5106075;28;20592;-86
2023/03/30 05:53:49;;;;;;;1.30;1.20;;;11.70;99.90;;;;;;5084259;28;20189;-86
2023/03/30 05:56:16;;;;;;;1.50;0.83;;;11.70;99.90;;;;;;5089478;28;20727;-87
2023/03/30 05:58:42;;;;;;;4.23;1.40;;;11.80;99.90;;;;;;5089665;28;20212;-87
2023/03/30 06:01:08;;;;;;;3.43;1.10;;;11.80;99.90;;;;;;5083753;28;20676;-87
2023/03/30 06:03:34;;;;;;;1.40;1.30;;;11.80;99.90;;;;;;5087045;28;20296;-89
2023/03/30 06:05:59;;;;;;;1.37;1.17;;;11.80;99.90;;;;;;5101562;28;20619;-89
2023/03/30 06:08:28;;;;;;;8.50;2.13;;;11.80;99.90;;;;;;5056633;28;20705;-87
2023/03/30 06:10:55;;;;;;;1.77;0.83;;;11.90;99.90;;;;;;5073083;28;20212;-88
2023/03/30 06:13:22;;;;;;;6.73;1.33;;;11.90;99.90;;;;;;5085741;28;20213;-87
2023/03/30 06:15:48;;;;;;;2.53;1.67;;;11.90;99.90;;;;;;5087094;28;20244;-87
2023/03/30 06:18:14;;;;;;;0.97;0.93;;;11.90;99.90;;;;;;5072459;28;20273;-85
2023/03/30 06:20:40;;;;;;;6.67;1.40;;;11.90;99.90;;;;;;5073140;28;20195;-87
2023/03/30 06:23:06;;;;;;;6.97;1.27;;;11.90;99.90;;;;;;5073387;28;20217;-87
2023/03/30 06:25:32;;;;;;;2.37;2.07;;;11.90;99.90;;;;;;5091210;28;20224;-88
2023/03/30 06:27:58;;;;;;;3.53;1.10;;;12.00;99.90;;;;;;5087333;28;20277;-88
2023/03/30 06:30:24;;;;;;;2.10;1.60;;;12.00;99.90;;;;;;5070089;28;20655;-87
2023/03/30 06:32:50;;;;;;;1.90;1.23;;;12.00;99.90;;;;;;5086276;28;20181;-85
2023/03/30 06:35:16;;;;;;;0.80;0.80;;;12.00;99.90;;;;;;5069577;28;20686;-86
2023/03/30 06:37:41;;;;;;;0.50;0.40;;;12.00;99.90;;;;;;5084553;28;20742;-86
2023/03/30 06:40:17;;;;;;;1.27;1.17;;;12.00;99.90;;;;;;5073716;28;20269;-87
2023/03/30 06:42:43;;;;;;;4.30;1.60;;;12.10;99.90;;;;;;5087505;28;20219;-86
2023/03/30 06:45:10;;;;;;;4.03;1.57;;;12.10;99.90;;;;;;5075792;28;20180;-87
2023/03/30 06:47:36;;;;;;;2.47;1.53;;;12.20;99.90;;;;;;5087887;28;20259;-88
2023/03/30 06:50:03;;;;;;;2.13;1.03;;;12.30;99.90;;;;;;5071325;28;20311;-88
2023/03/30 06:52:29;;;;;;;0.70;0.70;;;12.30;99.90;;;;;;5063446;28;20253;-88
2023/03/30 06:54:55;;;;;;;2.47;1.40;;;12.30;99.90;;;;;;5057396;28;20231;-88
2023/03/30 06:57:21;;;;;;;1.37;1.23;;;12.30;99.90;;;;;;5071551;28;20605;-87
2023/03/30 06:59:46;;;;;;;1.47;0.80;;;12.40;99.90;;;;;;5061808;28;20186;-89
2023/03/30 07:02:13;;;;;;;11.97;1.33;;;12.40;99.90;;;;;;5063274;28;20215;-88
2023/03/30 07:04:39;;;;;;;5.70;1.20;;;12.30;99.90;;;;;;5073257;28;20213;-88
2023/03/30 07:07:05;;;;;;;1.10;1.03;;;12.30;99.90;;;;;;5068680;28;20288;-88
2023/03/30 07:09:30;;;;;;;11.33;2.13;;;12.40;99.90;;;;;;5085018;28;20715;-88
2023/03/30 07:11:56;;;;;;;1.10;0.60;;;12.40;99.90;;;;;;5067841;28;20177;-88
2023/03/30 07:14:22;;;;;;;13.43;1.70;;;12.40;99.90;;;;;;5081127;28;20208;-88
2023/03/30 07:16:48;;;;;;;6.27;1.90;;;12.40;99.90;;;;;;5083922;28;20807;-88
2023/03/30 07:19:14;;;;;;;4.80;1.90;;;12.40;99.90;;;;;;5065948;28;20221;-87
2023/03/30 07:21:40;;;;;;;4.23;1.43;;;12.40;99.90;;;;;;5075404;28;20353;-88
2023/03/30 07:24:07;;;;;;;3.97;1.30;;;12.40;99.90;;;;;;5072200;28;20293;-89
2023/03/30 07:26:32;;;;;;;6.37;2.03;;;12.30;99.90;;;;;;5074441;28;20216;-89
2023/03/30 07:29:00;;;;;;;14.90;2.00;;;12.40;99.90;;;;;;5087612;28;20262;-89
2023/03/30 07:31:26;;;;;;;5.30;1.77;;;12.40;99.90;;;;;;5098120;28;20212;-91
2023/03/30 07:33:52;;;;;;;9.87;1.60;;;12.30;99.90;;;;;;5072570;28;20701;-89
2023/03/30 07:36:18;;;;;;;5.23;1.00;;;12.20;99.90;;;;;;5085680;28;20232;-88
2023/03/30 07:38:45;;;;;;;12.80;2.00;;;12.20;99.90;;;;;;5073560;28;20723;-90
2023/03/30 07:41:16;;;;;;;2.97;1.53;;;12.20;99.90;;;;;;5087161;28;20220;-88
2023/03/30 07:43:42;;;;;;;13.30;1.93;;;12.20;99.90;;;;;;5076650;28;20214;-88
2023/03/30 07:46:11;;;;;;;12.00;1.83;;;12.20;99.90;;;;;;5052755;28;20255;-89
2023/03/30 07:48:38;;;;;;;10.70;2.70;;;12.10;99.90;;;;;;5072121;28;20731;-89
2023/03/30 07:51:06;;;;;;;6.33;2.53;;;12.10;99.90;;;;;;5074896;28;20268;-88
2023/03/30 07:53:32;;;;;;;11.17;1.90;;;12.10;99.90;;;;;;5087099;28;20811;-88
2023/03/30 07:55:58;;;;;;;7.13;2.07;;;12.10;99.90;;;;;;5081883;28;20308;-87
2023/03/30 07:58:25;;;;;;;3.33;1.10;;;12.00;99.90;;;;;;5068298;28;20244;-88
2023/03/30 08:00:52;;;;;;;5.53;1.57;;;12.10;99.90;;;;;;5052009;28;20221;-88
2023/03/30 08:03:20;;;;;;;14.27;1.60;;;12.00;99.90;;;;;;5062436;28;20188;-88
2023/03/30 08:06:03;;;;;;;8.90;2.97;;;12.00;99.90;;;;;;5086325;28;20214;-90
2023/03/30 08:08:30;;;;;;;13.83;1.53;;;12.10;99.90;;;;;;5085563;28;20236;-88
2023/03/30 08:10:56;;;;;;;2.80;1.83;;;12.00;99.90;;;;;;5070767;28;20259;-88
2023/03/30 08:13:21;;;;;;;2.23;1.47;;;12.00;99.90;;;;;;5072241;28;20678;-88
2023/03/30 08:15:51;;;;;;;13.00;0.77;;;12.00;99.90;;;;;;5055201;28;20221;-93
2023/03/30 08:18:17;;;;;;;8.40;1.07;;;12.10;99.90;;;;;;5070536;28;20185;-87
2023/03/30 08:20:43;;;;;;;5.03;1.00;;;12.20;99.90;;;;;;5068978;28;20321;-87
2023/03/30 08:23:10;;;;;;;4.80;1.33;;;12.10;99.90;;;;;;5070684;28;20208;-87
2023/03/30 08:25:37;;;;;;;5.93;2.43;;;12.10;99.90;;;;;;5070925;28;20220;-87
2023/03/30 08:28:04;;;;;;;2.63;1.40;;;12.20;99.90;;;;;;5080737;28;20212;-87
2023/03/30 08:30:30;;;;;;;1.67;1.13;;;12.30;99.90;;;;;;5083539;28;20229;-87
2023/03/30 08:32:57;;;;;;;16.87;2.37;;;12.40;99.90;;;;;;5069607;28;20204;-87
2023/03/30 08:35:23;;;;;;;7.20;1.40;;;12.60;99.90;;;;;;5073301;28;20209;-87
2023/03/30 08:37:49;;;;;;;3.90;2.40;;;12.60;99.90;;;;;;5083605;28;20233;-86
2023/03/30 08:40:16;;;;;;;9.87;1.73;;;12.60;99.90;;;;;;5068758;28;20221;-87
2023/03/30 08:43:11;;;;;;;7.60;1.87;;;12.60;99.90;;;;;;5086754;28;20753;-86
2023/03/30 08:45:39;;;;;;;7.17;2.03;;;12.70;99.90;;;;;;5083815;28;20240;-87
2023/03/30 08:48:26;;;;;;;11.27;2.70;;;13.00;99.90;;;;;;5080781;28;20264;-87
2023/03/30 08:51:00;;;;;;;6.43;1.67;;;13.10;99.90;;;;;;5097238;28;20220;-86
2023/03/30 08:53:29;;;;;;;3.77;2.23;;;13.20;99.90;;;;;;5084549;28;20216;-86
2023/03/30 08:56:06;;;;;;;7.20;1.40;;;13.60;99.90;;;;;;5097871;28;20223;-87
2023/03/30 08:58:47;;;;;;;7.07;1.10;;;14.50;99.90;;;;;;5077415;28;20240;-87
2023/03/30 09:01:41;;;;;;;4.13;1.70;;;15.00;99.90;;;;;;5095322;28;20209;-87
2023/03/30 09:04:36;;;;;;;6.60;1.50;;;15.20;99.90;;;;;;5086134;28;20323;-86
2023/03/30 09:07:15;;;;;;;7.03;1.40;;;14.50;99.90;;;;;;5081749;28;20712;-87
2023/03/30 09:09:44;;;;;;;7.07;2.80;;;14.70;99.90;;;;;;5082237;28;20248;-87
2023/03/30 09:12:30;;;;;;;4.83;1.50;;;14.40;99.90;;;;;;5081256;28;20177;-87
2023/03/30 09:15:20;;;;;;;2.63;2.07;;;14.70;99.90;;;;;;5087634;28;20691;-87
2023/03/30 09:18:10;;;;;;;7.27;1.60;;;14.70;99.90;;;;;;5087083;28;20331;-87
2023/03/30 09:20:38;;;;;;;3.90;0.97;;;14.60;99.90;;;;;;5096680;28;20570;-87
2023/03/30 09:23:11;;;;;;;2.10;1.20;;;13.90;99.90;;;;;;5076468;28;20228;-86
2023/03/30 09:26:14;;;;;;;5.43;1.70;;;13.70;99.90;;;;;;5085714;28;20216;-87
2023/03/30 09:28:39;;;;;;;8.37;1.10;;;13.60;99.90;;;;;;5088953;28;20294;-87
2023/03/30 09:31:12;;;;;;;6.40;3.03;;;13.30;99.90;;;;;;5082139;28;20321;-87
2023/03/30 09:33:57;;;;;;;6.50;1.23;;;13.20;99.90;;;;;;5079199;28;20214;-88
2023/03/30 09:36:38;;;;;;;3.87;0.87;;;12.90;99.90;;;;;;5084140;28;20208;-87
2023/03/30 09:39:16;;;;;;;4.77;1.83;;;12.70;99.90;;;;;;5085339;28;20270;-88
2023/03/30 09:42:07;;;;;;;7.33;2.67;;;12.60;99.90;;;;;;5083423;28;20237;-87
2023/03/30 09:44:58;;;;;;;7.30;1.83;;;12.50;99.90;;;;;;5084288;28;20217;-87
2023/03/30 09:47:26;;;;;;;7.67;2.93;;;12.60;99.90;;;;;;5089185;28;20251;-87
2023/03/30 09:49:58;;;;;;;8.43;1.93;;;12.60;99.90;;;;;;5091776;28;20228;-86
2023/03/30 09:52:35;;;;;;;1.07;0.87;;;12.60;99.90;;;;;;5086494;28;20576;-87
2023/03/30 09:55:20;;;;;;;9.73;0.90;;;12.70;99.90;;;;;;5088446;28;20224;-87
2023/03/30 09:57:46;;;;;;;1.00;0.80;;;12.70;99.90;;;;;;5088309;28;20260;-87
2023/03/30 10:00:32;;;;;;;5.47;2.23;;;12.70;99.90;;;;;;5089886;28;20185;-87
2023/03/30 10:03:01;;;;;;;7.40;1.60;;;12.70;99.90;;;;;;5084523;28;20192;-86
2023/03/30 10:05:29;;;;;;;1.37;1.27;;;12.80;99.90;;;;;;5084714;28;20304;-87
2023/03/30 10:08:16;;;;;;;6.53;1.57;;;12.70;99.90;;;;;;5087305;28;20216;-87
2023/03/30 10:10:42;;;;;;;6.80;1.40;;;12.70;99.90;;;;;;5082545;28;20241;-86
2023/03/30 10:13:15;;;;;;;6.73;1.50;;;12.70;99.90;;;;;;5084255;28;20286;-87
2023/03/30 10:15:44;;;;;;;6.03;1.93;;;12.80;99.90;;;;;;5085575;28;20216;-87
2023/03/30 10:18:45;;;;;;;6.57;3.87;;;12.80;99.90;;;;;;5088457;28;20263;-86
2023/03/30 10:21:18;;;;;;;8.23;1.20;;;12.80;99.90;;;;;;5081858;28;20181;-86
2023/03/30 10:23:46;;;;;;;11.90;2.40;;;12.80;99.90;;;;;;5082741;28;20242;-85
2023/03/30 10:26:20;;;;;;;4.40;1.50;;;12.90;99.90;;;;;;5084436;28;20219;-87
2023/03/30 10:28:55;;;;;;;9.57;2.07;;;12.70;99.90;;;;;;5082439;28;20235;-87
2023/03/30 10:31:22;;;;;;;0.77;0.73;;;12.70;99.90;;;;;;5083173;28;20232;-88
2023/03/30 10:33:48;;;;;;;7.93;1.77;;;12.80;99.90;;;;;;5086837;28;20221;-87
2023/03/30 10:36:17;;;;;;;6.60;1.90;;;12.90;99.90;;;;;;5088727;28;20205;-88
2023/03/30 10:38:43;;;;;;;7.53;2.77;;;13.00;99.90;;;;;;5083774;28;20240;-86
2023/03/30 10:41:21;;;;;;;11.53;1.80;;;13.30;99.90;;;;;;5088208;28;20208;-86
2023/03/30 10:43:48;;;;;;;12.50;2.70;;;13.70;99.90;;;;;;5082742;28;20212;-86
2023/03/30 10:46:21;;;;;;;20.47;2.50;;;13.60;99.90;;;;;;5069802;28;20689;-86
2023/03/30 10:49:23;;;;;;;0.90;0.70;;;13.70;99.90;;;;;;5087897;28;20213;-87
2023/03/30 10:52:11;;;;;;;8.47;2.40;;;13.70;99.90;;;;;;5063363;28;20670;-86
2023/03/30 10:54:46;;;;;;;11.43;1.40;;;13.70;99.90;;;;;;5107754;28;20231;-86
2023/03/30 10:57:18;;;;;;;3.67;1.43;;;13.70;99.90;;;;;;5089181;28;20228;-86
2023/03/30 11:00:12;;;;;;;3.00;1.17;;;13.70;99.90;;;;;;5081110;28;21010;-86
2023/03/30 11:02:59;;;;;;;2.47;1.67;;;13.70;99.90;;;;;;5091149;28;20743;-86
2023/03/30 11:05:28;;;;;;;6.73;1.97;;;13.60;99.90;;;;;;5083430;28;20224;-87
2023/03/30 11:08:01;;;;;;;4.40;2.60;;;13.60;99.90;;;;;;5088415;28;20299;-87
2023/03/30 11:10:35;;;;;;;2.17;0.87;;;13.60;99.90;;;;;;5087736;28;20265;-87
2023/03/30 11:13:05;;;;;;;6.97;1.70;;;14.10;99.90;;;;;;5087735;28;20216;-87
2023/03/30 11:16:20;;;;;;;3.20;1.70;;;14.50;99.90;;;;;;5086660;28;20244;-87
2023/03/30 11:19:18;;;;;;;3.23;0.80;;;14.20;99.90;;;;;;5086712;28;20244;-86
2023/03/30 11:22:02;;;;;;;9.90;2.27;;;14.20;99.90;;;;;;5084844;28;20274;-86
2023/03/30 11:24:28;;;;;;;13.53;1.87;;;14.30;99.90;;;;;;5085797;28;20173;-87
2023/03/30 11:27:35;;;;;;;7.70;1.70;;;14.50;99.90;;;;;;5085393;28;20272;-86
2023/03/30 11:30:06;;;;;;;8.90;1.80;;;14.70;99.90;;;;;;5080537;28;20209;-87
2023/03/30 11:32:51;;;;;;;6.00;2.87;;;15.10;99.90;;;;;;5087973;28;20212;-87
2023/03/30 11:35:29;;;;;;;4.27;1.67;;;15.20;99.90;;;;;;5085560;28;20237;-88
2023/03/30 11:38:22;;;;;;;4.30;1.67;;;14.80;99.90;;;;;;5080506;28;20224;-88
2023/03/30 11:40:59;;;;;;;8.73;3.70;;;14.50;99.90;;;;;;5091444;28;20212;-86
2023/03/30 11:43:28;;;;;;;4.93;2.17;;;14.50;99.90;;;;;;5087540;28;20223;-87
2023/03/30 11:46:03;;;;;;;8.23;1.77;;;14.10;99.90;;;;;;5071157;28;20232;-87
2023/03/30 11:49:06;;;;;;;8.47;2.97;;;14.30;99.90;;;;;;5086050;28;20257;-87
2023/03/30 11:51:48;;;;;;;8.83;2.37;;;14.40;99.90;;;;;;5080704;28;20220;-86
2023/03/30 11:54:29;;;;;;;4.50;1.17;;;14.60;99.90;;;;;;5083609;28;20560;-86
2023/03/30 11:57:20;;;;;;;4.60;1.20;;;14.50;99.90;;;;;;5083978;28;20254;-87
2023/03/30 12:00:21;;;;;;;2.43;1.53;;;14.40;99.90;;;;;;5080222;28;20299;-87
2023/03/30 12:03:00;;;;;;;6.60;1.17;;;14.40;99.90;;;;;;5088293;28;20219;-86
2023/03/30 12:05:43;;;;;;;9.53;2.27;;;14.30;99.90;;;;;;5084936;28;20247;-87
2023/03/30 12:08:45;;;;;;;7.33;2.63;;;14.20;99.90;;;;;;5089730;28;20221;-88
2023/03/30 12:11:11;;;;;;;5.80;2.57;;;14.50;99.90;;;;;;5080203;28;20213;-88
2023/03/30 12:13:37;;;;;;;11.60;4.47;;;14.60;99.90;;;;;;5076865;28;20217;-90
2023/03/30 12:16:12;;;;;;;7.20;1.37;;;14.70;99.90;;;;;;5073939;28;20224;-91
2023/03/30 12:19:06;;;;;;;1.60;1.30;;;14.50;99.90;;;;;;5074792;28;20682;-93
2023/03/30 12:22:19;;;;;;;9.20;1.93;;;14.60;99.90;;;;;;5078435;28;20338;-92
2023/03/30 12:24:52;;;;;;;7.60;2.30;;;14.70;99.90;;;;;;5075556;28;20705;-93
2023/03/30 12:27:18;;;;;;;11.63;2.40;;;14.60;99.90;;;;;;5088643;28;20177;-91
2023/03/30 12:29:50;;;;;;;4.67;2.60;;;14.80;99.90;;;;;;5055249;28;20710;-92
2023/03/30 12:32:29;;;;;;;11.23;2.17;;;14.60;99.90;;;;;;5078334;28;20240;-94
2023/03/30 12:34:56;;;;;;;5.63;2.20;;;14.80;99.90;;;;;;5095331;28;20223;-92
2023/03/30 12:37:26;;;;;;;9.97;2.60;;;14.80;99.90;;;;;;5072609;28;20694;-93
2023/03/30 12:39:56;;;;;;;10.57;2.67;;;14.80;99.90;;;;;;5087660;28;20607;-92
2023/03/30 12:42:53;;;;;;;9.97;1.87;;;14.70;99.90;;;;;;5087974;28;20193;-92
2023/03/30 12:45:32;;;;;;;6.07;1.83;;;14.50;99.90;;;;;;5089305;28;20189;-93
2023/03/30 12:48:03;;;;;;;9.80;2.00;;;14.60;99.90;;;;;;5087222;28;20184;-93
2023/03/30 12:51:00;;;;;;;6.43;1.40;;;14.60;99.90;;;;;;5079018;28;20232;-93
2023/03/30 12:53:29;;;;;;;9.00;3.03;;;14.50;99.90;;;;;;5100547;28;20254;-93
2023/03/30 12:56:16;;;;;;;6.83;1.80;;;14.60;99.90;;;;;;5091718;28;20589;-96
2023/03/30 12:58:57;;;;;;;13.73;1.37;;;14.50;99.90;;;;;;5099875;28;20228;-92
2023/03/30 13:01:37;;;;;;;8.60;1.53;;;14.30;99.90;;;;;;5076187;28;20227;-92
2023/03/30 13:04:11;;;;;;;3.83;2.60;;;14.30;99.90;;;;;;5087926;28;20238;-91
2023/03/30 13:06:46;;;;;;;9.63;2.80;;;14.40;99.90;;;;;;5084086;28;20219;-94
2023/03/30 13:09:15;;;;;;;7.07;1.50;;;14.50;99.90;;;;;;5083399;28;20628;-93
2023/03/30 13:11:52;;;;;;;4.70;1.60;;;14.60;99.90;;;;;;5088553;28;20196;-93